createdAt,value
2018-08-17T00:04:30.878Z,5.73
2018-08-17T00:09:34.264Z,6.43
2018-08-17T00:14:37.337Z,5.27
2018-08-17T00:19:40.636Z,7.40
2018-08-17T00:24:44.001Z,4.63
2018-08-17T00:29:47.272Z,6.13
2018-08-17T00:34:50.626Z,6.07
2018-08-17T00:39:53.893Z,6.57
2018-08-17T00:44:57.163Z,7.90
2018-08-17T00:50:00.670Z,5.00
2018-08-17T00:55:04.157Z,6.00
2018-08-17T01:00:07.560Z,6.00
2018-08-17T01:05:11.100Z,4.80
2018-08-17T01:10:14.386Z,7.73
2018-08-17T01:15:17.649Z,6.57
2018-08-17T01:20:21.082Z,8.33
2018-08-17T01:25:24.353Z,6.73
2018-08-17T01:30:27.740Z,4.37
2018-08-17T01:35:31.037Z,7.90
2018-08-17T01:40:34.333Z,6.40
2018-08-17T01:45:37.674Z,6.70
2018-08-17T01:50:41.049Z,5.97
2018-08-17T01:55:44.089Z,7.17
2018-08-17T02:00:47.358Z,7.20
2018-08-17T02:05:50.625Z,7.73
2018-08-17T02:10:53.978Z,6.50
2018-08-17T02:15:57.262Z,6.60
2018-08-17T02:21:00.559Z,7.60
2018-08-17T02:26:03.886Z,8.23
2018-08-17T02:31:07.197Z,7.07
2018-08-17T02:36:10.273Z,7.50
2018-08-17T02:41:13.642Z,7.90
2018-08-17T02:46:17.059Z,8.37
2018-08-17T02:51:20.332Z,6.10
2018-08-17T02:56:23.633Z,7.50
2018-08-17T03:01:27.168Z,14.37
2018-08-17T03:06:30.473Z,6.90
2018-08-17T03:11:33.755Z,7.47
2018-08-17T03:16:37.043Z,6.37
2018-08-17T03:21:40.339Z,10.77
2018-08-17T03:26:43.619Z,9.00
2018-08-17T03:31:46.916Z,7.37
2018-08-17T03:36:50.420Z,6.87
2018-08-17T03:41:53.756Z,6.70
2018-08-17T03:46:57.138Z,10.03
2018-08-17T03:52:00.599Z,7.00
2018-08-17T03:57:04.204Z,7.90
2018-08-17T04:02:07.924Z,9.70
2018-08-17T04:07:11.312Z,6.70
2018-08-17T04:12:14.783Z,6.70
2018-08-17T04:17:18.075Z,8.70
2018-08-17T04:22:21.348Z,7.93
2018-08-17T04:27:24.829Z,8.98
2018-08-17T04:32:28.120Z,9.03
2018-08-17T04:37:31.425Z,7.77
2018-08-17T04:42:35.416Z,7.83
2018-08-17T04:47:38.769Z,11.13
2018-08-17T04:52:42.053Z,8.17
2018-08-17T04:57:45.570Z,12.47
2018-08-17T05:02:48.881Z,11.20
2018-08-17T05:07:52.152Z,7.13
2018-08-17T05:12:55.437Z,8.20
2018-08-17T05:17:58.732Z,11.90
2018-08-17T05:23:02.111Z,7.33
2018-08-17T05:28:05.622Z,10.57
2018-08-17T05:33:08.999Z,8.80
2018-08-17T05:38:12.426Z,10.13
2018-08-17T05:43:15.708Z,8.03
2018-08-17T05:48:19.160Z,9.93
2018-08-17T05:53:22.434Z,8.83
2018-08-17T05:58:25.853Z,8.40
2018-08-17T06:03:29.133Z,11.00
2018-08-17T06:08:32.618Z,15.40
2018-08-17T06:13:35.898Z,7.50
2018-08-17T06:18:39.466Z,13.37
2018-08-17T06:23:42.765Z,7.37
2018-08-17T06:28:46.193Z,9.00
2018-08-17T06:33:49.490Z,9.50
2018-08-17T06:38:52.964Z,8.63
2018-08-17T06:43:56.369Z,7.80
2018-08-17T06:48:59.802Z,9.40
2018-08-17T06:54:03.186Z,7.80
2018-08-17T06:59:06.577Z,6.33
2018-08-17T07:04:09.702Z,8.33
2018-08-17T07:09:13.218Z,6.27
2018-08-17T07:14:16.635Z,7.80
2018-08-17T07:19:19.918Z,5.60
2018-08-17T07:24:23.208Z,6.10
2018-08-17T07:29:26.558Z,5.10
2018-08-17T07:34:30.013Z,5.10
2018-08-17T07:39:33.349Z,5.73
2018-08-17T07:44:36.634Z,6.40
2018-08-17T07:49:39.893Z,6.93
2018-08-17T07:54:43.194Z,4.87
2018-08-17T07:59:46.730Z,4.30
2018-08-17T08:04:50.036Z,8.20
2018-08-17T08:09:53.548Z,5.57
2018-08-17T08:14:57.002Z,7.57
2018-08-17T08:20:12.008Z,14.17
2018-08-17T08:25:15.293Z,4.60
2018-08-17T08:30:18.632Z,4.73
2018-08-17T08:35:22.041Z,3.17
2018-08-17T08:40:25.548Z,3.83
2018-08-17T08:45:28.949Z,4.37
2018-08-17T08:50:32.348Z,4.53
2018-08-17T08:55:35.879Z,5.70
2018-08-17T09:00:39.364Z,2.97
2018-08-17T09:05:42.665Z,3.10
2018-08-17T09:10:46.005Z,5.50
2018-08-17T09:15:49.516Z,5.90
2018-08-17T09:20:52.891Z,3.65
2018-08-17T09:25:56.322Z,2.72
2018-08-17T09:30:59.800Z,2.17
2018-08-17T09:36:03.032Z,3.00
2018-08-17T09:41:06.695Z,2.15
2018-08-17T09:46:10.254Z,2.27
2018-08-17T09:51:13.737Z,3.50
2018-08-17T09:56:17.063Z,3.25
2018-08-17T10:01:25.653Z,3.55
2018-08-17T10:06:35.033Z,3.33
2018-08-17T10:11:38.316Z,4.42
2018-08-17T10:16:41.695Z,2.80
2018-08-17T10:21:51.951Z,2.62
2018-08-17T10:26:55.443Z,3.37
2018-08-17T10:31:58.879Z,2.37
2018-08-17T10:37:02.273Z,2.40
2018-08-17T10:42:05.616Z,2.52
2018-08-17T10:47:09.055Z,4.37
2018-08-17T10:52:12.385Z,3.22
2018-08-17T10:57:15.787Z,3.98
2018-08-17T11:02:19.337Z,6.53
2018-08-17T11:07:26.934Z,3.10
2018-08-17T11:12:30.236Z,3.00
2018-08-17T11:17:33.537Z,2.72
2018-08-17T11:22:37.238Z,3.15
2018-08-17T11:27:40.574Z,4.25
2018-08-17T11:32:43.747Z,5.80
2018-08-17T11:37:47.060Z,2.92
2018-08-17T11:42:51.073Z,3.37
2018-08-17T11:47:55.247Z,2.95
2018-08-17T11:52:59.458Z,3.65
2018-08-17T11:58:02.906Z,3.58
2018-08-17T12:03:07.810Z,5.12
2018-08-17T12:08:11.311Z,2.02
2018-08-17T12:13:17.739Z,2.92
2018-08-17T12:18:21.142Z,2.90
2018-08-17T12:23:24.693Z,2.08
2018-08-17T12:28:29.100Z,4.45
2018-08-17T12:33:32.633Z,2.30
2018-08-17T12:38:36.089Z,1.82
2018-08-17T12:43:40.057Z,2.27
2018-08-17T12:48:43.563Z,2.58
2018-08-17T12:53:47.106Z,4.67
2018-08-17T12:58:50.527Z,3.50
2018-08-17T13:03:53.864Z,3.83
2018-08-17T13:08:57.205Z,3.92
2018-08-17T13:14:06.833Z,3.00
2018-08-17T13:19:10.425Z,2.58
2018-08-17T13:24:14.558Z,2.68
2018-08-17T13:29:17.916Z,2.55
2018-08-17T13:34:21.254Z,1.95
2018-08-17T13:39:24.781Z,3.10
2018-08-17T13:44:28.056Z,2.30
2018-08-17T13:49:31.482Z,1.87
2018-08-17T13:54:34.884Z,1.77
2018-08-17T13:59:38.164Z,1.75
2018-08-17T14:04:41.477Z,2.90
2018-08-17T14:09:44.775Z,5.80
2018-08-17T14:14:48.044Z,2.85
2018-08-17T14:19:51.425Z,2.35
2018-08-17T14:24:54.755Z,4.60
2018-08-17T14:29:58.149Z,3.75
2018-08-17T14:35:01.621Z,4.03
2018-08-17T14:40:05.108Z,6.22
2018-08-17T14:45:09.151Z,5.65
2018-08-17T14:50:13.548Z,2.60
2018-08-17T14:55:16.846Z,4.85
2018-08-17T15:00:20.318Z,3.55
2018-08-17T15:05:23.621Z,2.60
2018-08-17T15:10:26.906Z,1.82
2018-08-17T15:15:30.322Z,2.30
2018-08-17T15:20:33.726Z,2.47
2018-08-17T15:25:37.717Z,2.67
2018-08-17T15:30:41.146Z,2.45
2018-08-17T15:35:44.449Z,2.00
2018-08-17T15:40:47.802Z,2.60
2018-08-17T15:45:51.108Z,3.22
2018-08-17T15:50:54.421Z,2.45
2018-08-17T15:55:57.971Z,2.87
2018-08-17T16:01:01.482Z,2.17
2018-08-17T16:06:04.829Z,2.47
2018-08-17T16:11:08.813Z,3.85
2018-08-17T16:16:12.192Z,3.05
2018-08-17T16:21:15.170Z,2.85
2018-08-17T16:26:18.585Z,4.67
2018-08-17T16:31:21.873Z,2.52
2018-08-17T16:36:25.190Z,3.60
2018-08-17T16:41:28.461Z,3.15
2018-08-17T16:46:31.877Z,3.40
2018-08-17T16:51:35.317Z,4.33
2018-08-17T16:56:38.658Z,2.85
2018-08-17T17:01:42.031Z,4.08
2018-08-17T17:06:45.655Z,2.62
2018-08-17T17:11:49.341Z,5.03
2018-08-17T17:16:52.720Z,2.20
2018-08-17T17:21:56.003Z,3.90
2018-08-17T17:26:59.410Z,5.08
2018-08-17T17:32:02.914Z,2.67
2018-08-17T17:37:06.208Z,2.60
2018-08-17T17:42:09.508Z,2.40
2018-08-17T17:47:12.835Z,2.58
2018-08-17T17:52:16.155Z,4.97
2018-08-17T17:57:19.549Z,3.12
2018-08-17T18:02:22.842Z,3.95
2018-08-17T18:07:34.074Z,3.55
2018-08-17T18:12:37.342Z,5.42
2018-08-17T18:17:41.171Z,4.47
2018-08-17T18:22:44.534Z,3.85
2018-08-17T18:27:48.913Z,3.47
2018-08-17T18:32:52.190Z,2.40
2018-08-17T18:37:55.201Z,4.35
2018-08-17T18:42:58.621Z,3.17
2018-08-17T18:48:02.066Z,5.65
2018-08-17T18:53:05.366Z,3.98
2018-08-17T18:58:08.653Z,3.45
2018-08-17T19:03:12.094Z,2.90
2018-08-17T19:08:15.432Z,3.40
2018-08-17T19:13:18.912Z,5.28
2018-08-17T19:18:22.866Z,4.17
2018-08-17T19:23:26.218Z,5.87
2018-08-17T19:28:29.519Z,5.95
2018-08-17T19:33:32.828Z,3.97
2018-08-17T19:38:40.362Z,8.47
2018-08-17T19:43:43.678Z,5.13
2018-08-17T19:48:46.983Z,4.47
2018-08-17T19:53:50.318Z,11.87
2018-08-17T19:58:53.692Z,3.63
2018-08-17T20:03:57.046Z,5.57
2018-08-17T20:09:00.461Z,4.27
2018-08-17T20:14:04.125Z,4.23
2018-08-17T20:19:07.663Z,7.40
2018-08-17T20:24:11.033Z,3.50
2018-08-17T20:29:14.802Z,5.00
2018-08-17T20:34:18.077Z,5.67
2018-08-17T20:39:21.496Z,3.37
2018-08-17T20:44:24.797Z,3.62
2018-08-17T20:49:28.137Z,5.77
2018-08-17T20:54:32.044Z,7.83
2018-08-17T20:59:35.375Z,3.37
2018-08-17T21:04:38.949Z,4.83
2018-08-17T21:09:42.229Z,3.67
2018-08-17T21:14:45.513Z,4.87
2018-08-17T21:19:48.818Z,8.53
2018-08-17T21:24:52.177Z,7.53
2018-08-17T21:29:55.434Z,3.70
2018-08-17T21:34:58.849Z,5.83
2018-08-17T21:40:02.108Z,7.20
2018-08-17T21:45:05.685Z,4.40
2018-08-17T21:50:13.309Z,5.30
2018-08-17T21:55:16.640Z,4.67
2018-08-17T22:00:27.631Z,3.93
2018-08-17T22:05:33.088Z,5.03
2018-08-17T22:10:36.378Z,5.33
2018-08-17T22:15:41.211Z,5.43
2018-08-17T22:20:44.698Z,3.80
2018-08-17T22:25:48.119Z,4.93
2018-08-17T22:30:51.391Z,5.73
2018-08-17T22:35:54.990Z,6.00
2018-08-17T22:40:58.177Z,6.70
2018-08-17T22:46:01.524Z,6.17
2018-08-17T22:51:04.902Z,5.13
2018-08-17T22:56:08.273Z,6.30
2018-08-17T23:01:11.645Z,7.40
2018-08-17T23:06:14.958Z,6.73
2018-08-17T23:11:32.704Z,6.50
2018-08-17T23:16:36.126Z,7.90
2018-08-17T23:21:39.771Z,4.70
2018-08-17T23:26:43.051Z,8.17
2018-08-17T23:31:46.525Z,12.23
2018-08-17T23:36:49.847Z,7.17
2018-08-17T23:41:53.134Z,7.20
2018-08-17T23:46:56.511Z,5.40
2018-08-17T23:51:59.824Z,6.67
2018-08-17T23:57:03.232Z,8.03
